sensor_id;sensor_type;location;lat;lon;timestamp;pressure;altitude;pressure_sealevel;temperature;humidity
76050;BME280;64967;50.234;19.224;2023-03-01T00:01:04;99698.19;;;-3.91;90.76
76050;BME280;64967;50.234;19.224;2023-03-01T00:03:32;99692.88;;;-3.91;91.04
76050;BME280;64967;50.234;19.224;2023-03-01T00:06:00;99694.94;;;-3.96;91.06
76050;BME280;64967;50.234;19.224;2023-03-01T00:08:28;99689.50;;;-3.93;91.00
76050;BME280;64967;50.234;19.224;2023-03-01T00:11:08;99691.28;;;-3.93;90.19
76050;BME280;64967;50.234;19.224;2023-03-01T00:13:36;99689.50;;;-3.93;90.42
76050;BME280;64967;50.234;19.224;2023-03-01T00:16:05;99687.78;;;-3.94;90.49
76050;BME280;64967;50.234;19.224;2023-03-01T00:18:32;99692.13;;;-3.93;89.80
76050;BME280;64967;50.234;19.224;2023-03-01T00:20:59;99705.41;;;-3.94;90.95
76050;BME280;64967;50.234;19.224;2023-03-01T00:23:27;99692.22;;;-3.94;90.28
76050;BME280;64967;50.234;19.224;2023-03-01T00:25:54;99690.19;;;-3.89;90.08
76050;BME280;64967;50.234;19.224;2023-03-01T00:28:21;99661.81;;;-4.01;89.93
76050;BME280;64967;50.234;19.224;2023-03-01T00:30:48;99683.97;;;-3.88;88.93
76050;BME280;64967;50.234;19.224;2023-03-01T00:33:15;99681.22;;;-3.87;89.68
76050;BME280;64967;50.234;19.224;2023-03-01T00:35:42;99678.75;;;-3.90;88.16
76050;BME280;64967;50.234;19.224;2023-03-01T00:38:09;99679.88;;;-3.94;88.36
76050;BME280;64967;50.234;19.224;2023-03-01T00:40:36;99691.53;;;-3.98;89.98
76050;BME280;64967;50.234;19.224;2023-03-01T00:43:04;99686.25;;;-3.98;92.18
76050;BME280;64967;50.234;19.224;2023-03-01T00:45:32;99660.41;;;-4.09;91.63
76050;BME280;64967;50.234;19.224;2023-03-01T00:47:59;99670.59;;;-4.01;93.07
76050;BME280;64967;50.234;19.224;2023-03-01T00:50:26;99661.44;;;-4.11;92.09
76050;BME280;64967;50.234;19.224;2023-03-01T00:52:54;99675.41;;;-4.09;91.65
76050;BME280;64967;50.234;19.224;2023-03-01T00:55:22;99669.50;;;-4.14;91.76
76050;BME280;64967;50.234;19.224;2023-03-01T00:57:50;99668.16;;;-4.21;91.87
76050;BME280;64967;50.234;19.224;2023-03-01T01:00:18;99656.31;;;-4.30;91.89
76050;BME280;64967;50.234;19.224;2023-03-01T01:02:46;99669.00;;;-4.21;92.07
76050;BME280;64967;50.234;19.224;2023-03-01T01:05:14;99666.88;;;-4.14;91.22
76050;BME280;64967;50.234;19.224;2023-03-01T01:07:41;99673.25;;;-4.18;90.54
76050;BME280;64967;50.234;19.224;2023-03-01T01:10:08;99666.19;;;-4.33;91.39
76050;BME280;64967;50.234;19.224;2023-03-01T01:12:39;99666.69;;;-4.42;92.42
76050;BME280;64967;50.234;19.224;2023-03-01T01:15:06;99639.47;;;-4.60;92.67
76050;BME280;64967;50.234;19.224;2023-03-01T01:17:33;99649.06;;;-4.59;92.60
76050;BME280;64967;50.234;19.224;2023-03-01T01:20:00;99618.31;;;-4.76;93.06
76050;BME280;64967;50.234;19.224;2023-03-01T01:22:27;99658.94;;;-4.63;93.28
76050;BME280;64967;50.234;19.224;2023-03-01T01:24:54;99649.41;;;-4.65;93.68
76050;BME280;64967;50.234;19.224;2023-03-01T01:27:21;99657.88;;;-4.76;93.72
76050;BME280;64967;50.234;19.224;2023-03-01T01:29:48;99647.25;;;-4.74;93.50
76050;BME280;64967;50.234;19.224;2023-03-01T01:32:15;99640.94;;;-4.72;93.45
76050;BME280;64967;50.234;19.224;2023-03-01T01:34:42;99639.28;;;-4.73;93.67
76050;BME280;64967;50.234;19.224;2023-03-01T01:37:09;99645.63;;;-4.77;95.05
76050;BME280;64967;50.234;19.224;2023-03-01T01:39:36;99644.00;;;-4.79;95.87
76050;BME280;64967;50.234;19.224;2023-03-01T01:42:03;99642.06;;;-4.76;96.12
76050;BME280;64967;50.234;19.224;2023-03-01T01:44:30;99631.25;;;-4.71;95.10
76050;BME280;64967;50.234;19.224;2023-03-01T01:47:21;99633.81;;;-4.70;94.28
76050;BME280;64967;50.234;19.224;2023-03-01T01:49:51;99620.19;;;-4.78;94.87
76050;BME280;64967;50.234;19.224;2023-03-01T01:52:34;99622.84;;;-4.78;95.67
76050;BME280;64967;50.234;19.224;2023-03-01T01:55:09;99619.00;;;-4.72;95.06
76050;BME280;64967;50.234;19.224;2023-03-01T01:57:41;99617.13;;;-4.70;94.24
76050;BME280;64967;50.234;19.224;2023-03-01T02:00:17;99617.69;;;-4.81;94.38
76050;BME280;64967;50.234;19.224;2023-03-01T02:02:46;99624.69;;;-4.80;94.76
76050;BME280;64967;50.234;19.224;2023-03-01T02:05:20;99625.47;;;-4.78;95.05
76050;BME280;64967;50.234;19.224;2023-03-01T02:07:51;99617.94;;;-4.85;94.23
76050;BME280;64967;50.234;19.224;2023-03-01T02:10:21;99617.00;;;-4.84;94.47
76050;BME280;64967;50.234;19.224;2023-03-01T02:13:05;99610.13;;;-4.87;94.41
76050;BME280;64967;50.234;19.224;2023-03-01T02:15:49;99618.97;;;-4.88;93.85
76050;BME280;64967;50.234;19.224;2023-03-01T02:18:30;99604.13;;;-4.90;94.07
76050;BME280;64967;50.234;19.224;2023-03-01T02:27:52;99629.38;;;-5.02;94.45
76050;BME280;64967;50.234;19.224;2023-03-01T02:30:22;99635.50;;;-5.19;95.78
76050;BME280;64967;50.234;19.224;2023-03-01T02:32:54;99637.28;;;-5.19;97.51
76050;BME280;64967;50.234;19.224;2023-03-01T02:35:35;99646.56;;;-5.12;97.58
76050;BME280;64967;50.234;19.224;2023-03-01T02:38:07;99644.72;;;-5.10;96.38
76050;BME280;64967;50.234;19.224;2023-03-01T02:40:37;99641.94;;;-5.07;96.19
76050;BME280;64967;50.234;19.224;2023-03-01T02:43:08;99629.78;;;-5.10;95.96
76050;BME280;64967;50.234;19.224;2023-03-01T02:45:35;99624.72;;;-5.14;96.15
76050;BME280;64967;50.234;19.224;2023-03-01T02:48:02;99625.47;;;-5.12;96.65
76050;BME280;64967;50.234;19.224;2023-03-01T02:55:44;99628.81;;;-5.09;95.53
76050;BME280;64967;50.234;19.224;2023-03-01T02:58:11;99629.78;;;-5.10;95.51
76050;BME280;64967;50.234;19.224;2023-03-01T03:00:42;99625.19;;;-5.06;94.57
76050;BME280;64967;50.234;19.224;2023-03-01T03:03:17;99629.59;;;-5.07;94.71
76050;BME280;64967;50.234;19.224;2023-03-01T03:05:44;99625.66;;;-5.15;94.39
76050;BME280;64967;50.234;19.224;2023-03-01T03:08:11;99621.78;;;-5.25;96.11
76050;BME280;64967;50.234;19.224;2023-03-01T03:10:40;99617.06;;;-5.36;95.41
76050;BME280;64967;50.234;19.224;2023-03-01T03:13:11;99624.34;;;-5.24;95.75
76050;BME280;64967;50.234;19.224;2023-03-01T03:15:40;99612.53;;;-5.17;95.47
76050;BME280;64967;50.234;19.224;2023-03-01T03:18:10;99615.19;;;-5.17;94.92
76050;BME280;64967;50.234;19.224;2023-03-01T03:20:39;99611.84;;;-5.20;95.21
76050;BME280;64967;50.234;19.224;2023-03-01T03:23:07;99610.84;;;-5.18;95.22
76050;BME280;64967;50.234;19.224;2023-03-01T03:25:34;99606.81;;;-5.25;95.07
76050;BME280;64967;50.234;19.224;2023-03-01T03:28:05;99603.94;;;-5.20;95.63
76050;BME280;64967;50.234;19.224;2023-03-01T03:30:39;99604.72;;;-5.18;95.70
76050;BME280;64967;50.234;19.224;2023-03-01T03:33:08;99604.56;;;-5.15;94.20
76050;BME280;64967;50.234;19.224;2023-03-01T03:35:42;99595.09;;;-5.19;94.84
76050;BME280;64967;50.234;19.224;2023-03-01T03:38:11;99596.66;;;-5.15;94.25
76050;BME280;64967;50.234;19.224;2023-03-01T03:40:46;99598.25;;;-5.13;93.91
76050;BME280;64967;50.234;19.224;2023-03-01T03:43:19;99592.66;;;-5.22;93.75
76050;BME280;64967;50.234;19.224;2023-03-01T03:45:48;99574.19;;;-5.40;94.21
76050;BME280;64967;50.234;19.224;2023-03-01T03:48:16;99594.50;;;-5.24;94.97
76050;BME280;64967;50.234;19.224;2023-03-01T03:50:48;99600.84;;;-5.28;95.22
76050;BME280;64967;50.234;19.224;2023-03-01T03:53:16;99608.44;;;-5.40;96.59
76050;BME280;64967;50.234;19.224;2023-03-01T03:55:43;99601.94;;;-5.50;96.93
76050;BME280;64967;50.234;19.224;2023-03-01T03:58:11;99587.19;;;-5.54;97.39
76050;BME280;64967;50.234;19.224;2023-03-01T04:00:43;99616.19;;;-5.36;97.18
76050;BME280;64967;50.234;19.224;2023-03-01T04:03:11;99608.91;;;-5.31;96.86
76050;BME280;64967;50.234;19.224;2023-03-01T04:05:40;99604.72;;;-5.35;96.10
76050;BME280;64967;50.234;19.224;2023-03-01T04:08:08;99597.59;;;-5.33;95.49
76050;BME280;64967;50.234;19.224;2023-03-01T04:10:38;99605.78;;;-5.40;94.63
76050;BME280;64967;50.234;19.224;2023-03-01T04:13:08;99612.47;;;-5.50;94.76
76050;BME280;64967;50.234;19.224;2023-03-01T04:15:35;99603.31;;;-5.43;95.95
76050;BME280;64967;50.234;19.224;2023-03-01T04:18:03;99606.59;;;-5.37;96.06
76050;BME280;64967;50.234;19.224;2023-03-01T04:20:32;99606.75;;;-5.41;95.79
76050;BME280;64967;50.234;19.224;2023-03-01T04:23:04;99609.38;;;-5.41;95.39
76050;BME280;64967;50.234;19.224;2023-03-01T04:28:16;99604.47;;;-5.48;94.50
76050;BME280;64967;50.234;19.224;2023-03-01T04:30:43;99603.50;;;-5.46;95.02
76050;BME280;64967;50.234;19.224;2023-03-01T04:33:11;99605.09;;;-5.43;94.87
76050;BME280;64967;50.234;19.224;2023-03-01T04:35:38;99598.91;;;-5.42;95.39
76050;BME280;64967;50.234;19.224;2023-03-01T04:38:06;99599.75;;;-5.42;95.24
76050;BME280;64967;50.234;19.224;2023-03-01T04:40:34;99591.00;;;-5.42;95.47
76050;BME280;64967;50.234;19.224;2023-03-01T04:43:02;99591.53;;;-5.35;95.32
76050;BME280;64967;50.234;19.224;2023-03-01T04:45:31;99588.66;;;-5.31;95.57
76050;BME280;64967;50.234;19.224;2023-03-01T04:47:58;99591.53;;;-5.35;95.16
76050;BME280;64967;50.234;19.224;2023-03-01T04:50:25;99586.81;;;-5.29;95.59
76050;BME280;64967;50.234;19.224;2023-03-01T04:52:53;99593.09;;;-5.31;95.13
76050;BME280;64967;50.234;19.224;2023-03-01T04:55:20;99583.25;;;-5.28;95.05
76050;BME280;64967;50.234;19.224;2023-03-01T04:57:47;99557.66;;;-5.43;94.90
76050;BME280;64967;50.234;19.224;2023-03-01T05:00:15;99581.94;;;-5.36;96.35
76050;BME280;64967;50.234;19.224;2023-03-01T05:03:00;99556.97;;;-5.47;96.09
76050;BME280;64967;50.234;19.224;2023-03-01T05:05:30;99582.81;;;-5.36;95.31
76050;BME280;64967;50.234;19.224;2023-03-01T05:08:00;99580.00;;;-5.33;94.78
76050;BME280;64967;50.234;19.224;2023-03-01T05:10:29;99567.75;;;-5.34;94.47
76050;BME280;64967;50.234;19.224;2023-03-01T05:12:57;99576.06;;;-5.42;94.10
76050;BME280;64967;50.234;19.224;2023-03-01T05:15:29;99579.78;;;-5.46;94.53
76050;BME280;64967;50.234;19.224;2023-03-01T05:17:59;99581.63;;;-5.48;94.67
76050;BME280;64967;50.234;19.224;2023-03-01T05:20:27;99572.72;;;-5.45;94.88
76050;BME280;64967;50.234;19.224;2023-03-01T05:22:57;99570.69;;;-5.40;93.74
76050;BME280;64967;50.234;19.224;2023-03-01T05:25:33;99561.94;;;-5.41;93.71
76050;BME280;64967;50.234;19.224;2023-03-01T05:28:02;99578.06;;;-5.47;92.04
76050;BME280;64967;50.234;19.224;2023-03-01T05:30:34;99570.91;;;-5.45;92.57
76050;BME280;64967;50.234;19.224;2023-03-01T05:33:01;99565.75;;;-5.46;91.51
76050;BME280;64967;50.234;19.224;2023-03-01T05:35:28;99571.31;;;-5.52;92.63
76050;BME280;64967;50.234;19.224;2023-03-01T05:37:56;99566.44;;;-5.60;94.88
76050;BME280;64967;50.234;19.224;2023-03-01T05:40:23;99573.56;;;-5.62;95.54
76050;BME280;64967;50.234;19.224;2023-03-01T05:42:55;99581.16;;;-5.73;93.97
76050;BME280;64967;50.234;19.224;2023-03-01T05:45:24;99605.47;;;-5.68;94.97
76050;BME280;64967;50.234;19.224;2023-03-01T05:47:52;99587.09;;;-5.69;95.11
76050;BME280;64967;50.234;19.224;2023-03-01T05:50:21;99593.53;;;-5.75;95.17
76050;BME280;64967;50.234;19.224;2023-03-01T05:52:58;99593.22;;;-5.86;94.77
76050;BME280;64967;50.234;19.224;2023-03-01T05:55:27;99594.31;;;-5.73;96.49
76050;BME280;64967;50.234;19.224;2023-03-01T05:57:54;99592.38;;;-5.69;94.20
76050;BME280;64967;50.234;19.224;2023-03-01T06:00:22;99597.19;;;-5.60;94.98
76050;BME280;64967;50.234;19.224;2023-03-01T06:02:49;99595.88;;;-5.52;94.26
76050;BME280;64967;50.234;19.224;2023-03-01T06:05:16;99580.25;;;-5.55;92.69
76050;BME280;64967;50.234;19.224;2023-03-01T06:07:43;99588.13;;;-5.37;93.59
76050;BME280;64967;50.234;19.224;2023-03-01T06:10:12;99596.34;;;-5.26;92.38
76050;BME280;64967;50.234;19.224;2023-03-01T06:12:41;99596.34;;;-5.26;92.04
76050;BME280;64967;50.234;19.224;2023-03-01T06:15:10;99597.28;;;-5.10;93.02
76050;BME280;64967;50.234;19.224;2023-03-01T06:17:39;99590.50;;;-4.99;92.02
76050;BME280;64967;50.234;19.224;2023-03-01T06:20:13;99590.88;;;-4.89;91.48
76050;BME280;64967;50.234;19.224;2023-03-01T06:22:41;99600.88;;;-4.78;90.76
76050;BME280;64967;50.234;19.224;2023-03-01T06:25:10;99601.50;;;-4.73;90.56
76050;BME280;64967;50.234;19.224;2023-03-01T06:27:37;99610.56;;;-4.79;91.95
76050;BME280;64967;50.234;19.224;2023-03-01T06:30:04;99604.38;;;-4.78;90.49
76050;BME280;64967;50.234;19.224;2023-03-01T06:32:31;99605.91;;;-4.74;90.65
76050;BME280;64967;50.234;19.224;2023-03-01T06:34:58;99607.28;;;-4.67;90.64
76050;BME280;64967;50.234;19.224;2023-03-01T06:37:25;99610.97;;;-4.54;90.84
76050;BME280;64967;50.234;19.224;2023-03-01T06:39:52;99600.69;;;-4.42;90.28
76050;BME280;64967;50.234;19.224;2023-03-01T06:42:19;99585.28;;;-4.34;89.08
76050;BME280;64967;50.234;19.224;2023-03-01T06:44:46;99595.59;;;-4.30;88.23
76050;BME280;64967;50.234;19.224;2023-03-01T06:47:13;99570.06;;;-4.29;88.56
76050;BME280;64967;50.234;19.224;2023-03-01T06:49:41;99596.78;;;-4.04;88.52
76050;BME280;64967;50.234;19.224;2023-03-01T06:52:08;99607.34;;;-4.04;86.74
76050;BME280;64967;50.234;19.224;2023-03-01T06:54:35;99601.56;;;-3.95;87.83
76050;BME280;64967;50.234;19.224;2023-03-01T06:57:02;99594.56;;;-3.80;87.56
76050;BME280;64967;50.234;19.224;2023-03-01T06:59:29;99595.75;;;-3.70;87.14
76050;BME280;64967;50.234;19.224;2023-03-01T07:01:56;99588.91;;;-3.58;87.25
76050;BME280;64967;50.234;19.224;2023-03-01T07:04:23;99582.72;;;-3.43;86.99
76050;BME280;64967;50.234;19.224;2023-03-01T07:06:50;99586.63;;;-3.35;85.20
76050;BME280;64967;50.234;19.224;2023-03-01T07:09:22;99582.31;;;-3.22;84.07
76050;BME280;64967;50.234;19.224;2023-03-01T07:11:50;99577.34;;;-3.12;84.41
76050;BME280;64967;50.234;19.224;2023-03-01T07:14:17;99581.69;;;-2.97;83.15
76050;BME280;64967;50.234;19.224;2023-03-01T07:16:44;99583.38;;;-2.96;83.84
76050;BME280;64967;50.234;19.224;2023-03-01T07:19:11;99573.97;;;-2.86;83.09
76050;BME280;64967;50.234;19.224;2023-03-01T07:21:38;99565.38;;;-2.75;84.95
76050;BME280;64967;50.234;19.224;2023-03-01T07:24:06;99565.06;;;-2.56;84.58
76050;BME280;64967;50.234;19.224;2023-03-01T07:26:33;99566.56;;;-2.38;85.35
76050;BME280;64967;50.234;19.224;2023-03-01T07:29:02;99563.72;;;-2.21;84.23
76050;BME280;64967;50.234;19.224;2023-03-01T07:31:30;99565.38;;;-2.06;83.09
76050;BME280;64967;50.234;19.224;2023-03-01T07:33:57;99568.84;;;-1.91;82.88
76050;BME280;64967;50.234;19.224;2023-03-01T07:36:24;99564.34;;;-1.76;82.88
76050;BME280;64967;50.234;19.224;2023-03-01T07:38:51;99558.03;;;-1.61;82.49
76050;BME280;64967;50.234;19.224;2023-03-01T07:41:18;99561.78;;;-1.51;80.68
76050;BME280;64967;50.234;19.224;2023-03-01T07:43:45;99569.03;;;-1.41;79.08
76050;BME280;64967;50.234;19.224;2023-03-01T07:46:12;99562.03;;;-1.29;78.43
76050;BME280;64967;50.234;19.224;2023-03-01T07:48:39;99571.63;;;-1.26;77.10
76050;BME280;64967;50.234;19.224;2023-03-01T07:51:07;99573.53;;;-1.16;77.97
76050;BME280;64967;50.234;19.224;2023-03-01T07:53:34;99566.09;;;-0.98;77.24
76050;BME280;64967;50.234;19.224;2023-03-01T07:58:30;99562.72;;;-0.87;76.73
76050;BME280;64967;50.234;19.224;2023-03-01T08:01:03;99570.16;;;-0.67;74.03
76050;BME280;64967;50.234;19.224;2023-03-01T08:03:31;99558.56;;;-0.54;73.09
76050;BME280;64967;50.234;19.224;2023-03-01T08:06:03;99561.88;;;-0.50;73.83
76050;BME280;64967;50.234;19.224;2023-03-01T08:08:30;99569.72;;;-0.49;73.05
76050;BME280;64967;50.234;19.224;2023-03-01T08:10:59;99564.28;;;-0.34;73.39
76050;BME280;64967;50.234;19.224;2023-03-01T08:13:26;99557.38;;;-0.37;73.23
76050;BME280;64967;50.234;19.224;2023-03-01T08:15:53;99561.81;;;-0.25;74.43
76050;BME280;64967;50.234;19.224;2023-03-01T08:18:21;99563.25;;;-0.08;73.98
76050;BME280;64967;50.234;19.224;2023-03-01T08:20:48;99555.47;;;0.02;72.01
76050;BME280;64967;50.234;19.224;2023-03-01T08:23:15;99558.06;;;0.14;72.59
76050;BME280;64967;50.234;19.224;2023-03-01T08:25:42;99552.91;;;0.13;71.85
76050;BME280;64967;50.234;19.224;2023-03-01T08:28:09;99552.22;;;0.22;72.20
76050;BME280;64967;50.234;19.224;2023-03-01T08:30:36;99548.06;;;0.41;71.78
76050;BME280;64967;50.234;19.224;2023-03-01T08:33:03;99545.06;;;0.46;71.05
76050;BME280;64967;50.234;19.224;2023-03-01T08:35:30;99541.78;;;0.42;70.92
76050;BME280;64967;50.234;19.224;2023-03-01T08:37:57;99535.69;;;0.53;70.29
76050;BME280;64967;50.234;19.224;2023-03-01T08:40:24;99539.63;;;0.82;70.24
76050;BME280;64967;50.234;19.224;2023-03-01T08:42:51;99539.78;;;0.92;68.25
76050;BME280;64967;50.234;19.224;2023-03-01T08:45:18;99538.34;;;0.99;67.14
76050;BME280;64967;50.234;19.224;2023-03-01T08:47:45;99519.38;;;1.15;67.63
76050;BME280;64967;50.234;19.224;2023-03-01T08:50:12;99520.81;;;1.19;66.04
76050;BME280;64967;50.234;19.224;2023-03-01T08:52:39;99528.47;;;1.34;68.74
76050;BME280;64967;50.234;19.224;2023-03-01T08:55:06;99532.47;;;1.40;64.97
76050;BME280;64967;50.234;19.224;2023-03-01T08:57:33;99528.34;;;1.58;64.78
76050;BME280;64967;50.234;19.224;2023-03-01T09:00:00;99524.81;;;1.58;63.67
76050;BME280;64967;50.234;19.224;2023-03-01T09:02:27;99531.28;;;1.66;60.43
76050;BME280;64967;50.234;19.224;2023-03-01T09:04:54;99527.13;;;1.73;62.33
76050;BME280;64967;50.234;19.224;2023-03-01T09:07:21;99524.69;;;1.82;59.57
76050;BME280;64967;50.234;19.224;2023-03-01T09:09:48;99530.75;;;1.84;61.44
76050;BME280;64967;50.234;19.224;2023-03-01T09:12:15;99530.63;;;1.85;60.27
76050;BME280;64967;50.234;19.224;2023-03-01T09:14:42;99522.34;;;2.10;59.32
76050;BME280;64967;50.234;19.224;2023-03-01T09:17:09;99527.94;;;2.39;60.12
76050;BME280;64967;50.234;19.224;2023-03-01T09:19:36;99532.66;;;2.47;59.92
76050;BME280;64967;50.234;19.224;2023-03-01T09:22:04;99530.22;;;2.44;58.71
76050;BME280;64967;50.234;19.224;2023-03-01T09:24:31;99519.25;;;2.58;58.50
76050;BME280;64967;50.234;19.224;2023-03-01T09:26:58;99534.47;;;2.46;58.83
76050;BME280;64967;50.234;19.224;2023-03-01T09:29:25;99524.34;;;2.61;56.95
76050;BME280;64967;50.234;19.224;2023-03-01T09:31:52;99522.72;;;2.69;57.61
76050;BME280;64967;50.234;19.224;2023-03-01T09:34:22;99529.31;;;2.65;57.93
76050;BME280;64967;50.234;19.224;2023-03-01T09:36:50;99512.81;;;2.60;57.06
76050;BME280;64967;50.234;19.224;2023-03-01T09:39:18;99522.50;;;2.61;59.33
76050;BME280;64967;50.234;19.224;2023-03-01T09:41:46;99522.31;;;2.53;57.45
76050;BME280;64967;50.234;19.224;2023-03-01T09:49:52;99510.63;;;2.65;57.42
76050;BME280;64967;50.234;19.224;2023-03-01T10:00:40;99503.78;;;3.14;55.43
76050;BME280;64967;50.234;19.224;2023-03-01T10:03:11;99504.00;;;3.11;56.83
76050;BME280;64967;50.234;19.224;2023-03-01T10:11:05;99503.84;;;3.33;54.94
76050;BME280;64967;50.234;19.224;2023-03-01T10:16:21;99502.94;;;3.44;54.15
76050;BME280;64967;50.234;19.224;2023-03-01T10:18:54;99497.22;;;3.58;55.06
76050;BME280;64967;50.234;19.224;2023-03-01T10:21:22;99462.13;;;3.51;55.28
76050;BME280;64967;50.234;19.224;2023-03-01T10:23:51;99462.66;;;3.36;54.97
76050;BME280;64967;50.234;19.224;2023-03-01T10:26:38;99484.09;;;3.45;55.78
76050;BME280;64967;50.234;19.224;2023-03-01T10:29:11;99479.50;;;3.27;56.96
76050;BME280;64967;50.234;19.224;2023-03-01T10:31:39;99488.94;;;3.71;54.67
76050;BME280;64967;50.234;19.224;2023-03-01T10:34:35;99488.13;;;3.80;53.06
76050;BME280;64967;50.234;19.224;2023-03-01T10:37:14;99476.34;;;4.01;55.61
76050;BME280;64967;50.234;19.224;2023-03-01T10:40:00;99488.78;;;4.22;54.71
76050;BME280;64967;50.234;19.224;2023-03-01T10:42:39;99481.59;;;4.13;52.72
76050;BME280;64967;50.234;19.224;2023-03-01T10:50:44;99480.34;;;4.17;52.82
76050;BME280;64967;50.234;19.224;2023-03-01T10:53:28;99469.63;;;4.17;54.28
76050;BME280;64967;50.234;19.224;2023-03-01T10:55:58;99472.59;;;4.33;51.81
76050;BME280;64967;50.234;19.224;2023-03-01T10:58:28;99471.59;;;4.34;53.13
76050;BME280;64967;50.234;19.224;2023-03-01T11:01:03;99461.31;;;4.29;53.58
76050;BME280;64967;50.234;19.224;2023-03-01T11:03:38;99462.59;;;4.64;52.76
76050;BME280;64967;50.234;19.224;2023-03-01T11:08:42;99453.31;;;5.05;51.94
76050;BME280;64967;50.234;19.224;2023-03-01T11:13:37;99443.97;;;4.81;50.29
76050;BME280;64967;50.234;19.224;2023-03-01T11:16:13;99442.81;;;4.74;50.73
76050;BME280;64967;50.234;19.224;2023-03-01T11:18:40;99436.50;;;4.75;50.49
76050;BME280;64967;50.234;19.224;2023-03-01T11:21:15;99429.53;;;4.92;53.20
76050;BME280;64967;50.234;19.224;2023-03-01T11:23:43;99431.78;;;4.87;51.58
76050;BME280;64967;50.234;19.224;2023-03-01T11:26:13;99432.50;;;4.89;52.65
76050;BME280;64967;50.234;19.224;2023-03-01T11:28:50;99437.22;;;4.68;51.32
76050;BME280;64967;50.234;19.224;2023-03-01T11:31:18;99425.63;;;4.77;50.91
76050;BME280;64967;50.234;19.224;2023-03-01T11:42:18;99428.66;;;5.38;51.61
76050;BME280;64967;50.234;19.224;2023-03-01T11:44:51;99427.19;;;5.26;48.64
76050;BME280;64967;50.234;19.224;2023-03-01T11:47:37;99428.81;;;5.36;49.94
76050;BME280;64967;50.234;19.224;2023-03-01T11:50:25;99426.69;;;5.40;49.94
76050;BME280;64967;50.234;19.224;2023-03-01T12:07:00;99392.28;;;5.35;52.73
76050;BME280;64967;50.234;19.224;2023-03-01T12:12:32;99391.44;;;5.62;48.09
76050;BME280;64967;50.234;19.224;2023-03-01T12:32:09;99366.88;;;5.57;48.07
76050;BME280;64967;50.234;19.224;2023-03-01T12:42:58;99356.06;;;6.12;46.85
76050;BME280;64967;50.234;19.224;2023-03-01T12:50:57;99356.88;;;6.12;48.64
76050;BME280;64967;50.234;19.224;2023-03-01T12:53:30;99352.28;;;6.05;46.21
76050;BME280;64967;50.234;19.224;2023-03-01T12:56:02;99344.34;;;5.85;46.02
76050;BME280;64967;50.234;19.224;2023-03-01T13:04:18;99340.44;;;5.90;45.35
76050;BME280;64967;50.234;19.224;2023-03-01T13:09:45;99313.88;;;6.04;44.13
76050;BME280;64967;50.234;19.224;2023-03-01T13:13:08;99330.84;;;6.48;43.70
76050;BME280;64967;50.234;19.224;2023-03-01T13:15:33;99325.63;;;6.47;40.75
76050;BME280;64967;50.234;19.224;2023-03-01T13:18:11;99324.88;;;6.37;40.11
76050;BME280;64967;50.234;19.224;2023-03-01T13:20:59;99319.41;;;6.46;41.01
76050;BME280;64967;50.234;19.224;2023-03-01T13:23:31;99325.19;;;6.59;41.24
76050;BME280;64967;50.234;19.224;2023-03-01T13:26:11;99319.41;;;6.72;39.26
76050;BME280;64967;50.234;19.224;2023-03-01T13:28:45;99323.56;;;6.92;37.90
76050;BME280;64967;50.234;19.224;2023-03-01T13:33:46;99315.53;;;7.00;39.48
76050;BME280;64967;50.234;19.224;2023-03-01T13:38:58;99304.94;;;7.07;37.31
76050;BME280;64967;50.234;19.224;2023-03-01T13:44:25;99308.34;;;7.17;40.29
76050;BME280;64967;50.234;19.224;2023-03-01T13:46:56;99302.72;;;6.94;38.48
76050;BME280;64967;50.234;19.224;2023-03-01T13:49:28;99299.94;;;7.12;39.72
76050;BME280;64967;50.234;19.224;2023-03-01T13:52:43;99307.16;;;7.11;39.40
76050;BME280;64967;50.234;19.224;2023-03-01T13:55:19;99299.47;;;6.83;39.37
76050;BME280;64967;50.234;19.224;2023-03-01T13:57:56;99299.00;;;6.87;40.27
76050;BME280;64967;50.234;19.224;2023-03-01T14:00:28;99298.88;;;6.97;41.34
76050;BME280;64967;50.234;19.224;2023-03-01T14:05:36;99286.31;;;7.05;40.67
76050;BME280;64967;50.234;19.224;2023-03-01T14:08:05;99275.56;;;7.05;41.08
76050;BME280;64967;50.234;19.224;2023-03-01T14:10:56;99276.88;;;7.01;38.97
76050;BME280;64967;50.234;19.224;2023-03-01T14:19:24;99286.31;;;7.05;40.46
76050;BME280;64967;50.234;19.224;2023-03-01T14:25:01;99274.88;;;7.11;40.97
76050;BME280;64967;50.234;19.224;2023-03-01T14:27:39;99268.50;;;7.12;39.81
76050;BME280;64967;50.234;19.224;2023-03-01T14:30:19;99276.19;;;6.99;41.17
76050;BME280;64967;50.234;19.224;2023-03-01T14:32:58;99258.25;;;7.08;40.47
76050;BME280;64967;50.234;19.224;2023-03-01T14:35:28;99257.09;;;7.10;40.10
76050;BME280;64967;50.234;19.224;2023-03-01T14:37:57;99259.09;;;7.08;41.05
76050;BME280;64967;50.234;19.224;2023-03-01T14:40:32;99255.34;;;6.93;40.25
76050;BME280;64967;50.234;19.224;2023-03-01T14:43:00;99262.59;;;7.01;40.51
76050;BME280;64967;50.234;19.224;2023-03-01T14:45:29;99267.63;;;6.96;40.11
76050;BME280;64967;50.234;19.224;2023-03-01T14:48:02;99255.53;;;7.00;38.54
76050;BME280;64967;50.234;19.224;2023-03-01T14:50:35;99256.41;;;7.16;39.18
76050;BME280;64967;50.234;19.224;2023-03-01T14:53:15;99241.81;;;7.11;37.90
76050;BME280;64967;50.234;19.224;2023-03-01T14:55:55;99260.81;;;7.26;37.81
76050;BME280;64967;50.234;19.224;2023-03-01T14:58:24;99253.44;;;7.28;39.20
76050;BME280;64967;50.234;19.224;2023-03-01T15:00:54;99256.47;;;7.33;38.89
76050;BME280;64967;50.234;19.224;2023-03-01T15:03:34;99254.75;;;7.15;36.55
76050;BME280;64967;50.234;19.224;2023-03-01T15:06:05;99238.88;;;6.96;38.08
76050;BME280;64967;50.234;19.224;2023-03-01T15:08:33;99263.09;;;7.04;39.14
76050;BME280;64967;50.234;19.224;2023-03-01T15:13:40;99253.69;;;7.00;39.17
76050;BME280;64967;50.234;19.224;2023-03-01T15:16:12;99255.47;;;6.84;38.22
76050;BME280;64967;50.234;19.224;2023-03-01T15:18:45;99256.25;;;6.76;38.00
76050;BME280;64967;50.234;19.224;2023-03-01T15:21:35;99257.59;;;6.72;37.64
76050;BME280;64967;50.234;19.224;2023-03-01T15:26:43;99254.13;;;6.80;36.62
76050;BME280;64967;50.234;19.224;2023-03-01T15:29:17;99259.53;;;6.62;36.82
76050;BME280;64967;50.234;19.224;2023-03-01T15:31:55;99236.56;;;6.34;37.24